Buoy 41609

sailwx.info

Track history (hours):
 
Tides and Currents Weather Stations Pressure Air Temp Water Temp Dewpoint Dewpoint Depression Visibility Wind Speed Wind Dir Waves Ship Positions

Drifting buoy 41609

Last reported at 2014-Oct-25 21:00 UTC. Time now 2014-Oct-25 22:05 UTC.
Position N 39°37' W 071°32'.

Water temperature 20.6 ° C

Date/timePositionNaut miles runAvg speedWind from/ knotsBaromVisibWave heightAir tempDewpointWater temp
2014-Oct-25 21:00N 39°37' W 071°32'0 0.0 20.6
2014-Oct-25 20:00N 39°37' W 071°32'0 0.0 20.6
2014-Oct-25 19:00N 39°37' W 071°32'4 1.8 20.6
2014-Oct-25 17:00N 39°40' W 071°31'0 0.0 20.6
2014-Oct-25 16:00N 39°40' W 071°31'1 0.1 20.6
2014-Oct-25 11:00N 39°40' W 071°32'0 0.2 20.6
2014-Oct-25 10:00N 39°40' W 071°32'0 0.4 20.6
2014-Oct-25 09:00N 39°40' W 071°31'0 0.3 20.6
2014-Oct-25 08:00N 39°40' W 071°31'6 2.0 20.6
2014-Oct-25 05:00N 39°44' W 071°26'0 0.0 20.7
2014-Oct-25 03:00N 39°44' W 071°26'0 0.0 20.7
2014-Oct-25 00:00N 39°44' W 071°26'0 0.0 20.8
2014-Oct-24 23:00N 39°44' W 071°26'2 1.2 20.8
2014-Oct-24 21:00N 39°47' W 071°26'0 0.0 20.8
2014-Oct-24 18:00N 39°47' W 071°26'1 0.9 20.8
2014-Oct-24 17:00N 39°48' W 071°25'1 1.0 20.8
2014-Oct-24 16:00N 39°47' W 071°24'0 0.0 20.8
2014-Oct-24 14:00N 39°47' W 071°24'0 0.0 20.9
2014-Oct-24 13:00N 39°47' W 071°24'1 0.4 20.9
2014-Oct-24 11:00N 39°47' W 071°23'1 1.4 20.9
2014-Oct-24 10:00N 39°47' W 071°21'1 0.6 20.9
2014-Oct-24 09:00N 39°48' W 071°21'0 0.3 20.9
2014-Oct-24 08:00N 39°48' W 071°21'4 0.7 20.9
2014-Oct-24 02:00N 39°52' W 071°19'2 1.0 21.0
2014-Oct-24 00:00N 39°52' W 071°16'0 0.0 21.0
2014-Oct-23 22:00N 39°52' W 071°16'1 0.4 21.1
2014-Oct-23 20:00N 39°53' W 071°15'2 1.7 21.1
2014-Oct-23 19:00N 39°54' W 071°14'0 0.0 21.1
2014-Oct-23 18:00N 39°54' W 071°14'0 0.1 21.1
2014-Oct-23 14:00N 39°54' W 071°13'1 0.3 21.0
2014-Oct-23 10:00N 39°55' W 071°12'1 0.5 21.2
2014-Oct-23 08:00N 39°55' W 071°11'1 0.4 21.2
2014-Oct-23 06:00N 39°56' W 071°12'1 0.1 21.2
2014-Oct-23 02:00N 39°56' W 071°12'2 0.7 21.2
2014-Oct-22 23:00N 39°55' W 071°10'3 2.9 21.3
2014-Oct-22 22:00N 39°55' W 071°06'0 0.0 21.3
2014-Oct-22 20:00N 39°55' W 071°06'0 0.0 21.3
2014-Oct-22 17:00N 39°55' W 071°06'3 0.4 21.3
2014-Oct-22 10:00N 39°55' W 071°02'0 0.1 21.4
2014-Oct-22 09:00N 39°55' W 071°02'0 0.0 21.4
2014-Oct-22 08:00N 39°55' W 071°02'1 0.6 21.4
2014-Oct-22 07:00N 39°55' W 071°02'0 0.1 21.4
2014-Oct-22 01:00N 39°55' W 071°02'1 0.8 21.5
2014-Oct-22 00:00N 39°55' W 071°01'1 0.4 21.5
2014-Oct-21 22:00N 39°55' W 070°59'0 0.0 21.5
2014-Oct-21 21:00N 39°55' W 070°59'1 0.7 21.5
2014-Oct-21 20:00N 39°56' W 070°59'0 0.0 21.5
2014-Oct-21 18:00N 39°56' W 070°59'1 0.9 21.5
2014-Oct-21 17:00N 39°56' W 070°60'1 0.8 21.5
2014-Oct-21 16:00N 39°56' W 070°59'1 0.3 21.5
2014-Oct-21 14:00N 39°56' W 070°59'1 0.2 21.5
2014-Oct-21 11:00N 39°56' W 070°59'0 0.2 21.5
2014-Oct-21 09:00N 39°55' W 070°59'1 1.0 21.5
2014-Oct-21 08:00N 39°56' W 070°58'0 0.0 21.6
2014-Oct-21 07:00N 39°56' W 070°58'0 0.0 21.6
2014-Oct-21 05:00N 39°56' W 070°58'1 0.3 21.6
2014-Oct-21 02:00N 39°56' W 070°59'0 0.0 21.6
2014-Oct-21 01:00N 39°56' W 070°59'0 0.2 21.6
2014-Oct-21 00:00N 39°56' W 070°59'0 0.0 21.7
2014-Oct-20 23:00N 39°56' W 070°59'1 0.7 21.7
2014-Oct-20 21:00N 39°55' W 070°58'1 0.2 21.7
2014-Oct-20 17:00N 39°55' W 070°56'0 0.5 21.7
2014-Oct-20 16:00N 39°56' W 070°56'1 0.2 21.7
2014-Oct-20 13:00N 39°55' W 070°56'1 0.4 21.6
2014-Oct-20 11:00N 39°56' W 070°57'1 1.1 21.6
2014-Oct-20 10:00N 39°55' W 070°56'1 1.0 21.7
2014-Oct-20 09:00N 39°55' W 070°54'0 0.0 21.7
2014-Oct-20 07:00N 39°55' W 070°54'0 0.2 21.8
2014-Oct-20 05:00N 39°55' W 070°54'1 1.1 21.8
2014-Oct-20 04:00N 39°56' W 070°53'0 0.0 21.8
2014-Oct-20 02:00N 39°56' W 070°53'1 1.1 21.9
2014-Oct-20 01:00N 39°56' W 070°52'0 0.0 21.9
2014-Oct-20 00:00N 39°56' W 070°52'1 0.2 21.9
2014-Oct-19 21:00N 39°57' W 070°51'1 0.5 22.0
2014-Oct-19 20:00N 39°57' W 070°51'1 0.7 22.0
2014-Oct-19 19:00N 39°58' W 070°51'1 0.7 22.1
2014-Oct-19 18:00N 39°57' W 070°51'1 0.9 22.1
2014-Oct-19 17:00N 39°58' W 070°51'0 0.1 22.1
2014-Oct-19 15:00N 39°58' W 070°51'1 0.6 22.1
2014-Oct-19 14:00N 39°57' W 070°50'0 0.0 22.2
2014-Oct-19 13:00N 39°57' W 070°50'0 0.2 22.2
2014-Oct-19 11:00N 39°57' W 070°50'0 0.4 22.2
2014-Oct-19 10:00N 39°57' W 070°50'1 0.4 22.2
2014-Oct-19 08:00N 39°57' W 070°49'0 0.5 22.2
2014-Oct-19 07:00N 39°57' W 070°49'1 0.2 22.3
2014-Oct-19 02:00N 39°58' W 070°48'0 0.0 22.4
2014-Oct-19 01:00N 39°58' W 070°48'1 0.8 22.4
2014-Oct-19 00:00N 39°59' W 070°49'0 0.0 22.5
2014-Oct-18 23:00N 39°59' W 070°49'1 0.3 22.5
2014-Oct-18 21:00N 39°58' W 070°49'0 0.3 22.5
2014-Oct-18 20:00N 39°58' W 070°49'0 0.2 22.5
2014-Oct-18 19:00N 39°58' W 070°49'0 0.0 22.5
2014-Oct-18 18:00N 39°58' W 070°49'0 0.2 22.5
2014-Oct-18 17:00N 39°59' W 070°49'0 0.1 22.5
2014-Oct-18 10:00N 39°58' W 070°49'0 0.1 22.4
2014-Oct-18 09:00N 39°58' W 070°49'0 0.0 22.4
2014-Oct-18 08:00N 39°58' W 070°49'0 0.0 22.4
2014-Oct-18 07:00N 39°58' W 070°49'1 0.9 22.4
2014-Oct-18 06:00N 39°58' W 070°48'0 0.0 22.4
2014-Oct-18 05:00N 39°58' W 070°48'0 0.1 22.4
2014-Oct-18 02:00N 39°58' W 070°48'0 0.1 22.5
2014-Oct-17 23:00N 39°58' W 070°48'0 0.1 22.5
2014-Oct-17 21:00N 39°58' W 070°48'0 0.4 22.5
2014-Oct-17 20:00N 39°59' W 070°47'0 0.2 22.5
2014-Oct-17 19:00N 39°59' W 070°47'0 0.2 22.5
2014-Oct-17 17:00N 39°59' W 070°47'1 0.3 22.5
2014-Oct-17 15:00N 39°59' W 070°47'1 0.1 22.5
2014-Oct-17 11:00N 39°60' W 070°46'1 0.3 22.5
2014-Oct-17 09:00N 39°60' W 070°45'1 0.6 22.5
2014-Oct-17 07:00N 40°00' W 070°44'2 1.6 22.6
2014-Oct-17 06:00N 40°01' W 070°42'1 0.1 22.6
2014-Oct-17 02:00N 40°02' W 070°42'0 0.2 22.6
2014-Oct-17 01:00N 40°02' W 070°42'1 0.9 22.6
2014-Oct-17 00:00N 40°03' W 070°43'0 0.0 22.6
2014-Oct-16 22:00N 40°03' W 070°43'1 0.5 22.7
2014-Oct-16 19:00N 40°01' W 070°42'3 0.2 22.7
2014-Oct-16 03:00N 39°60' W 070°38'0 0.0 22.8
2014-Oct-16 02:00N 39°60' W 070°38'1 0.4 22.8
2014-Oct-16 00:00N 40°00' W 070°38'1 0.7 22.8
2014-Oct-15 23:00N 39°60' W 070°38'   22.9
Track history (hours):
 
Tides and Currents Weather Stations Pressure Air Temp Water Temp Dewpoint Dewpoint Depression Visibility Wind Speed Wind Dir Waves Ship Positions

Drifting buoy 41609

Last reported at 2014-Oct-25 21:00 UTC. Time now 2014-Oct-25 22:05 UTC.
Position N 39°37' W 071°32'.

Water temperature 20.6 ° C

Date/timePositionNaut miles runAvg speedWind from/ knotsBaromVisibWave heightAir tempDewpointWater temp
2014-Oct-25 21:00N 39°37' W 071°32'0 0.0 20.6
2014-Oct-25 20:00N 39°37' W 071°32'0 0.0 20.6
2014-Oct-25 19:00N 39°37' W 071°32'4 1.8 20.6
2014-Oct-25 17:00N 39°40' W 071°31'0 0.0 20.6
2014-Oct-25 16:00N 39°40' W 071°31'1 0.1 20.6
2014-Oct-25 11:00N 39°40' W 071°32'0 0.2 20.6
2014-Oct-25 10:00N 39°40' W 071°32'0 0.4 20.6
2014-Oct-25 09:00N 39°40' W 071°31'0 0.3 20.6
2014-Oct-25 08:00N 39°40' W 071°31'6 2.0 20.6
2014-Oct-25 05:00N 39°44' W 071°26'0 0.0 20.7
2014-Oct-25 03:00N 39°44' W 071°26'0 0.0 20.7
2014-Oct-25 00:00N 39°44' W 071°26'0 0.0 20.8
2014-Oct-24 23:00N 39°44' W 071°26'2 1.2 20.8
2014-Oct-24 21:00N 39°47' W 071°26'0 0.0 20.8
2014-Oct-24 18:00N 39°47' W 071°26'1 0.9 20.8
2014-Oct-24 17:00N 39°48' W 071°25'1 1.0 20.8
2014-Oct-24 16:00N 39°47' W 071°24'0 0.0 20.8
2014-Oct-24 14:00N 39°47' W 071°24'0 0.0 20.9
2014-Oct-24 13:00N 39°47' W 071°24'1 0.4 20.9
2014-Oct-24 11:00N 39°47' W 071°23'1 1.4 20.9
2014-Oct-24 10:00N 39°47' W 071°21'1 0.6 20.9
2014-Oct-24 09:00N 39°48' W 071°21'0 0.3 20.9
2014-Oct-24 08:00N 39°48' W 071°21'4 0.7 20.9
2014-Oct-24 02:00N 39°52' W 071°19'2 1.0 21.0
2014-Oct-24 00:00N 39°52' W 071°16'0 0.0 21.0
2014-Oct-23 22:00N 39°52' W 071°16'1 0.4 21.1
2014-Oct-23 20:00N 39°53' W 071°15'2 1.7 21.1
2014-Oct-23 19:00N 39°54' W 071°14'0 0.0 21.1
2014-Oct-23 18:00N 39°54' W 071°14'0 0.1 21.1
2014-Oct-23 14:00N 39°54' W 071°13'1 0.3 21.0
2014-Oct-23 10:00N 39°55' W 071°12'1 0.5 21.2
2014-Oct-23 08:00N 39°55' W 071°11'1 0.4 21.2
2014-Oct-23 06:00N 39°56' W 071°12'1 0.1 21.2
2014-Oct-23 02:00N 39°56' W 071°12'2 0.7 21.2
2014-Oct-22 23:00N 39°55' W 071°10'3 2.9 21.3
2014-Oct-22 22:00N 39°55' W 071°06'0 0.0 21.3
2014-Oct-22 20:00N 39°55' W 071°06'0 0.0 21.3
2014-Oct-22 17:00N 39°55' W 071°06'3 0.4 21.3
2014-Oct-22 10:00N 39°55' W 071°02'0 0.1 21.4
2014-Oct-22 09:00N 39°55' W 071°02'0 0.0 21.4
2014-Oct-22 08:00N 39°55' W 071°02'1 0.6 21.4
2014-Oct-22 07:00N 39°55' W 071°02'0 0.1 21.4
2014-Oct-22 01:00N 39°55' W 071°02'1 0.8 21.5
2014-Oct-22 00:00N 39°55' W 071°01'1 0.4 21.5
2014-Oct-21 22:00N 39°55' W 070°59'0 0.0 21.5
2014-Oct-21 21:00N 39°55' W 070°59'1 0.7 21.5
2014-Oct-21 20:00N 39°56' W 070°59'0 0.0 21.5
2014-Oct-21 18:00N 39°56' W 070°59'1 0.9 21.5
2014-Oct-21 17:00N 39°56' W 070°60'1 0.8 21.5
2014-Oct-21 16:00N 39°56' W 070°59'1 0.3 21.5
2014-Oct-21 14:00N 39°56' W 070°59'1 0.2 21.5
2014-Oct-21 11:00N 39°56' W 070°59'0 0.2 21.5
2014-Oct-21 09:00N 39°55' W 070°59'1 1.0 21.5
2014-Oct-21 08:00N 39°56' W 070°58'0 0.0 21.6
2014-Oct-21 07:00N 39°56' W 070°58'0 0.0 21.6
2014-Oct-21 05:00N 39°56' W 070°58'1 0.3 21.6
2014-Oct-21 02:00N 39°56' W 070°59'0 0.0 21.6
2014-Oct-21 01:00N 39°56' W 070°59'0 0.2 21.6
2014-Oct-21 00:00N 39°56' W 070°59'0 0.0 21.7
2014-Oct-20 23:00N 39°56' W 070°59'1 0.7 21.7
2014-Oct-20 21:00N 39°55' W 070°58'1 0.2 21.7
2014-Oct-20 17:00N 39°55' W 070°56'0 0.5 21.7
2014-Oct-20 16:00N 39°56' W 070°56'1 0.2 21.7
2014-Oct-20 13:00N 39°55' W 070°56'1 0.4 21.6
2014-Oct-20 11:00N 39°56' W 070°57'1 1.1 21.6
2014-Oct-20 10:00N 39°55' W 070°56'1 1.0 21.7
2014-Oct-20 09:00N 39°55' W 070°54'0 0.0 21.7
2014-Oct-20 07:00N 39°55' W 070°54'0 0.2 21.8
2014-Oct-20 05:00N 39°55' W 070°54'1 1.1 21.8
2014-Oct-20 04:00N 39°56' W 070°53'0 0.0 21.8
2014-Oct-20 02:00N 39°56' W 070°53'1 1.1 21.9
2014-Oct-20 01:00N 39°56' W 070°52'0 0.0 21.9
2014-Oct-20 00:00N 39°56' W 070°52'1 0.2 21.9
2014-Oct-19 21:00N 39°57' W 070°51'1 0.5 22.0
2014-Oct-19 20:00N 39°57' W 070°51'1 0.7 22.0
2014-Oct-19 19:00N 39°58' W 070°51'1 0.7 22.1
2014-Oct-19 18:00N 39°57' W 070°51'1 0.9 22.1
2014-Oct-19 17:00N 39°58' W 070°51'0 0.1 22.1
2014-Oct-19 15:00N 39°58' W 070°51'1 0.6 22.1
2014-Oct-19 14:00N 39°57' W 070°50'0 0.0 22.2
2014-Oct-19 13:00N 39°57' W 070°50'0 0.2 22.2
2014-Oct-19 11:00N 39°57' W 070°50'0 0.4 22.2
2014-Oct-19 10:00N 39°57' W 070°50'1 0.4 22.2
2014-Oct-19 08:00N 39°57' W 070°49'0 0.5 22.2
2014-Oct-19 07:00N 39°57' W 070°49'1 0.2 22.3
2014-Oct-19 02:00N 39°58' W 070°48'0 0.0 22.4
2014-Oct-19 01:00N 39°58' W 070°48'1 0.8 22.4
2014-Oct-19 00:00N 39°59' W 070°49'0 0.0 22.5
2014-Oct-18 23:00N 39°59' W 070°49'1 0.3 22.5
2014-Oct-18 21:00N 39°58' W 070°49'0 0.3 22.5
2014-Oct-18 20:00N 39°58' W 070°49'0 0.2 22.5
2014-Oct-18 19:00N 39°58' W 070°49'0 0.0 22.5
2014-Oct-18 18:00N 39°58' W 070°49'0 0.2 22.5
2014-Oct-18 17:00N 39°59' W 070°49'0 0.1 22.5
2014-Oct-18 10:00N 39°58' W 070°49'0 0.1 22.4
2014-Oct-18 09:00N 39°58' W 070°49'0 0.0 22.4
2014-Oct-18 08:00N 39°58' W 070°49'0 0.0 22.4
2014-Oct-18 07:00N 39°58' W 070°49'1 0.9 22.4
2014-Oct-18 06:00N 39°58' W 070°48'0 0.0 22.4
2014-Oct-18 05:00N 39°58' W 070°48'0 0.1 22.4
2014-Oct-18 02:00N 39°58' W 070°48'0 0.1 22.5
2014-Oct-17 23:00N 39°58' W 070°48'0 0.1 22.5
2014-Oct-17 21:00N 39°58' W 070°48'0 0.4 22.5
2014-Oct-17 20:00N 39°59' W 070°47'0 0.2 22.5
2014-Oct-17 19:00N 39°59' W 070°47'0 0.2 22.5
2014-Oct-17 17:00N 39°59' W 070°47'1 0.3 22.5
2014-Oct-17 15:00N 39°59' W 070°47'1 0.1 22.5
2014-Oct-17 11:00N 39°60' W 070°46'1 0.3 22.5
2014-Oct-17 09:00N 39°60' W 070°45'1 0.6 22.5
2014-Oct-17 07:00N 40°00' W 070°44'2 1.6 22.6
2014-Oct-17 06:00N 40°01' W 070°42'1 0.1 22.6
2014-Oct-17 02:00N 40°02' W 070°42'0 0.2 22.6
2014-Oct-17 01:00N 40°02' W 070°42'1 0.9 22.6
2014-Oct-17 00:00N 40°03' W 070°43'0 0.0 22.6
2014-Oct-16 22:00N 40°03' W 070°43'1 0.5 22.7
2014-Oct-16 19:00N 40°01' W 070°42'3 0.2 22.7
2014-Oct-16 03:00N 39°60' W 070°38'0 0.0 22.8
2014-Oct-16 02:00N 39°60' W 070°38'1 0.4 22.8
2014-Oct-16 00:00N 40°00' W 070°38'1 0.7 22.8
2014-Oct-15 23:00N 39°60' W 070°38'   22.9

Dump ship's entire track history